LIBR Airport Information

Runway Information
Runway 05 Length 5892 ft width 148 ft
Elevation 46 ft Threshold ft Heading 53
Runway 23 Length 5892 ft Width 148 ft
Elevation 13 ft Threshold 230 ft Heading 233
Runway 13 Length 10000 ft width 148 ft
Elevation 29 ft Threshold ft Heading 137
Runway 31 Length 10000 ft Width 148 ft
Elevation 26 ft Threshold ft Heading 317
Airport Frequencies
Type APP Name BRINDISI A Frequency 36.365 MHZ
Type APP Name BRINDISI A Frequency 118.4 MHZ
Type GND Name GND Frequency 31.355 MHZ
Type ILS RWY 32 Name Frequency 109.5 MHZ
Type TWR Name BRINDISI T Frequency 118.1 MHZ
Airport Navaids
Type VORTAC Name Brindisi Frequency 113200 KHZ
Type NDB Name Brindisi Frequency 364 KHZ
Airport Weather Information & NOTAM
ADDS - METARS form results

(0914 UTC 29 June 2022)
Data provider http://aviationweather.gov/metar/data/
 
METAR text: LIBR 290850Z 19009KT 160V220 CAVOK 35/19 Q1011
Conditions at: LIBR (BRINDISI/CASALE , IT) observed 0850 UTC 29 June 2022
Temperature: 35.0°C (95°F)
Dewpoint: 19.0°C (66°F) [RH = 39%]
Pressure (altimeter): 29.85 inches Hg (1011.0 mb)
Winds: from the S (190 degrees) at 10 MPH (9 knots; 4.6 m/s)
Visibility: 6 or more miles (10+ km)
Ceiling: ceiling and visibility are OK
Clouds: unknown
Weather: no significant weather observed at this time

METAR text: LIBR 290820Z 20008KT 170V230 CAVOK 33/18 Q1011
Conditions at: LIBR (BRINDISI/CASALE , IT) observed 0820 UTC 29 June 2022
Temperature: 33.0°C (91°F)
Dewpoint: 18.0°C (64°F) [RH = 41%]
Pressure (altimeter): 29.85 inches Hg (1011.0 mb)
Winds: from the SSW (200 degrees) at 9 MPH (8 knots; 4.1 m/s)
Visibility: 6 or more miles (10+ km)
Ceiling: ceiling and visibility are OK
Clouds: unknown
Weather: no significant weather observed at this time

Forecast for: LIBR (BRINDISI/CASALE , IT)
Text: TAF LIBR 290500Z 2906/3006 VRB05KT CAVOK
Forecast period: 0600 to 0800 UTC 29 June 2022
Forecast type: FROM: standard forecast or significant change
Winds: variable direction winds at 6 MPH (5 knots; 2.6 m/s)
Visibility: 6 or more miles (10+ km)
Ceiling: unknown
Clouds: missing
Weather: NSW  (no significant weather)
Text: BECMG 2908/2910 18013KT
Forecast period: 0800 to 2000 UTC 29 June 2022
Forecast type: BECOMING: Conditions expected to become as follows by 1000 UTC 29 June 2022
Winds: from the S (180 degrees) at 15 MPH (13 knots; 6.7 m/s)
Visibility: 6 or more miles (10+ km)
Ceiling: unknown
Clouds: missing
Weather: NSW  (no significant weather)
Text: BECMG 2920/2922 VRB06KT
Forecast period: 2000 UTC 29 June 2022 to 0600 UTC 30 June 2022
Forecast type: BECOMING: Conditions expected to become as follows by 2200 UTC 29 June 2022
Winds: variable direction winds at 7 MPH (6 knots; 3.1 m/s)
Visibility: 6 or more miles (10+ km)
Ceiling: unknown
Clouds: missing
Weather: NSW  (no significant weather)